Time;durP1;ratioP1;P1;durP2;ratioP2;P2;SDS_P1;SDS_P2;PMS_P1;PMS_P2;Temp;Humidity;BMP_temperature;BMP_pressure;BME280_temperature;BME280_humidity;BME280_pressure;Samples;Min_cycle;Max_cycle;Signal;HPM_P1;HPM_P2
2023/01/21 00:01:32;;;;;;;;;;;21.90;99.90;;;;;;5032835;28;20445;-76
2023/01/21 00:03:58;;;;;;;;;;;22.00;99.90;;;;;;5032893;28;19913;-76
2023/01/21 00:06:25;;;;;;;;;;;22.00;99.90;;;;;;5033132;28;19916;-73
2023/01/21 00:08:52;;;;;;;;;;;22.00;99.90;;;;;;5033321;28;19909;-78
2023/01/21 00:11:18;;;;;;;;;;;22.00;99.90;;;;;;5032998;28;19909;-77
2023/01/21 00:13:46;;;;;;;;;;;22.30;99.90;;;;;;5033010;28;19931;-76
2023/01/21 00:16:13;;;;;;;;;;;22.40;99.90;;;;;;5032824;28;19996;-77
2023/01/21 00:18:39;;;;;;;;;;;22.60;99.90;;;;;;5033198;28;19909;-78
2023/01/21 00:21:06;;;;;;;;;;;22.60;99.90;;;;;;5033148;28;19917;-77
2023/01/21 00:23:32;;;;;;;;;;;22.80;99.90;;;;;;5032783;28;19913;-78
2023/01/21 00:26:00;;;;;;;;;;;22.90;99.90;;;;;;5032655;28;20288;-77
2023/01/21 00:28:30;;;;;;;;;;;23.20;99.90;;;;;;5033028;28;19970;-72
2023/01/21 00:30:58;;;;;;;;;;;23.30;99.90;;;;;;5032858;28;19909;-74
2023/01/21 00:33:24;;;;;;;;;;;23.20;99.90;;;;;;5032660;28;19909;-74
2023/01/21 00:36:01;;;;;;;;;;;23.00;99.90;;;;;;5032353;28;19932;-75
2023/01/21 00:38:29;;;;;;;;;;;23.20;99.90;;;;;;5033001;28;19918;-75
2023/01/21 00:41:03;;;;;;;;;;;23.20;99.90;;;;;;5032819;28;19959;-72
2023/01/21 00:43:30;;;;;;;;;;;23.30;99.90;;;;;;5032765;28;19916;-77
2023/01/21 00:45:57;;;;;;;;;;;23.50;99.90;;;;;;5032507;28;19917;-76
2023/01/21 00:48:23;;;;;;;;;;;23.40;99.90;;;;;;5032936;28;20035;-79
2023/01/21 00:50:50;;;;;;;;;;;23.30;99.90;;;;;;5032964;28;19949;-78
2023/01/21 00:53:17;;;;;;;;;;;23.50;99.90;;;;;;5033919;28;19909;-77
2023/01/21 00:55:44;;;;;;;;;;;23.50;99.90;;;;;;5036293;28;19921;-78
2023/01/21 00:58:11;;;;;;;;;;;23.60;99.90;;;;;;5036660;28;19909;-77
2023/01/21 01:00:37;;;;;;;;;;;23.40;99.90;;;;;;5036443;28;20312;-73
2023/01/21 01:03:04;;;;;;;;;;;23.20;99.90;;;;;;5036387;28;19916;-74
2023/01/21 01:05:31;;;;;;;;;;;23.10;99.90;;;;;;5035872;28;19917;-76
2023/01/21 01:07:57;;;;;;;;;;;22.90;99.90;;;;;;5036269;28;19971;-77
2023/01/21 01:10:24;;;;;;;;;;;22.80;99.90;;;;;;5018498;28;20415;-77
2023/01/21 01:12:50;;;;;;;;;;;22.80;99.90;;;;;;5036327;28;19917;-76
2023/01/21 01:15:17;;;;;;;;;;;22.90;99.90;;;;;;5035583;28;19909;-77
2023/01/21 01:17:44;;;;;;;;;;;22.90;99.90;;;;;;5018121;28;20264;-77
2023/01/21 01:20:11;;;;;;;;;;;22.90;99.90;;;;;;5036045;28;19963;-77
2023/01/21 01:22:37;;;;;;;;;;;22.80;99.90;;;;;;5035986;28;19913;-77
2023/01/21 01:25:04;;;;;;;;;;;23.00;99.90;;;;;;5035784;28;19917;-77
2023/01/21 01:27:31;;;;;;;;;;;23.50;99.90;;;;;;5035754;28;19909;-77
2023/01/21 01:29:57;;;;;;;;;;;23.80;99.90;;;;;;5036017;28;19913;-76
2023/01/21 01:32:24;;;;;;;;;;;24.00;99.90;;;;;;5035885;28;19955;-77
2023/01/21 01:34:51;;;;;;;;;;;24.50;99.90;;;;;;5035434;28;20319;-76
2023/01/21 01:37:17;;;;;;;;;;;24.40;99.90;;;;;;5035675;28;19966;-74
2023/01/21 01:39:44;;;;;;;;;;;24.40;99.90;;;;;;5035762;28;20014;-76
2023/01/21 01:42:14;;;;;;;;;;;24.40;99.90;;;;;;5035555;28;19909;-77
2023/01/21 01:44:58;;;;;;;;;;;24.20;99.90;;;;;;5035535;28;19913;-76
2023/01/21 01:47:44;;;;;;;;;;;24.20;99.90;;;;;;5035326;28;20003;-77
2023/01/21 01:50:13;;;;;;;;;;;24.00;99.90;;;;;;5035406;28;19962;-77
2023/01/21 01:52:41;;;;;;;;;;;24.10;99.90;;;;;;5035427;28;19909;-77
2023/01/21 01:55:10;;;;;;;;;;;24.00;99.90;;;;;;5034952;28;20052;-76
2023/01/21 01:57:38;;;;;;;;;;;24.00;99.90;;;;;;5035396;28;20379;-76
2023/01/21 02:00:06;;;;;;;;;;;24.10;99.90;;;;;;5035009;28;19929;-70
2023/01/21 02:02:34;;;;;;;;;;;23.90;99.90;;;;;;5035371;28;20356;-77
2023/01/21 02:05:03;;;;;;;;;;;23.80;99.90;;;;;;5034497;28;19917;-74
2023/01/21 02:07:38;;;;;;;;;;;23.90;99.90;;;;;;5017434;28;20272;-76
2023/01/21 02:10:14;;;;;;;;;;;23.80;99.90;;;;;;5035402;28;19915;-76
2023/01/21 02:12:41;;;;;;;;;;;23.70;99.90;;;;;;5035345;28;19909;-77
2023/01/21 02:15:09;;;;;;;;;;;23.90;99.90;;;;;;5034826;28;19909;-77
2023/01/21 02:17:45;;;;;;;;;;;23.70;99.90;;;;;;5035079;28;19952;-76
2023/01/21 02:20:40;;;;;;;;;;;23.40;99.90;;;;;;5035174;28;19909;-77
2023/01/21 02:23:11;;;;;;;;;;;23.60;99.90;;;;;;5025844;28;19909;-68
2023/01/21 02:25:47;;;;;;;;;;;23.70;99.90;;;;;;5034558;28;19963;-66
2023/01/21 02:28:42;;;;;;;;;;;24.00;99.90;;;;;;5034896;28;20019;-76
2023/01/21 02:31:33;;;;;;;;;;;24.00;99.90;;;;;;5025497;28;19909;-65
2023/01/21 02:34:02;;;;;;;;;;;24.10;99.90;;;;;;5034313;28;20283;-66
2023/01/21 02:36:32;;;;;;;;;;;24.20;99.90;;;;;;5034488;28;19990;-65
2023/01/21 02:39:07;;;;;;;;;;;24.20;99.90;;;;;;5034594;28;19909;-66
2023/01/21 02:41:39;;;;;;;;;;;24.00;99.90;;;;;;5034177;28;20279;-65
2023/01/21 02:44:12;;;;;;;;;;;23.80;99.90;;;;;;5033970;28;20423;-68
2023/01/21 02:46:45;;;;;;;;;;;23.80;99.90;;;;;;5034238;28;20055;-67
2023/01/21 02:49:23;;;;;;;;;;;23.60;99.90;;;;;;5034132;28;19916;-65
2023/01/21 02:51:50;;;;;;;;;;;23.70;99.90;;;;;;5033903;28;19909;-67
2023/01/21 02:54:35;;;;;;;;;;;23.70;99.90;;;;;;5033645;28;19916;-65
2023/01/21 02:57:02;;;;;;;;;;;23.90;99.90;;;;;;5033850;28;20043;-65
2023/01/21 02:59:28;;;;;;;;;;;24.00;99.90;;;;;;5033736;28;19925;-66
2023/01/21 03:02:01;;;;;;;;;;;23.80;99.90;;;;;;5033797;28;20126;-65
2023/01/21 03:04:27;;;;;;;;;;;23.70;99.90;;;;;;5033445;28;19913;-64
2023/01/21 03:07:12;;;;;;;;;;;23.90;99.90;;;;;;5033868;28;19932;-65
2023/01/21 03:09:38;;;;;;;;;;;23.80;99.90;;;;;;5033691;28;19974;-67
2023/01/21 03:12:07;;;;;;;;;;;23.60;99.90;;;;;;5033565;28;19910;-66
2023/01/21 03:17:32;;;;;;;;;;;23.50;99.90;;;;;;5033117;28;19982;-68
2023/01/21 03:20:02;;;;;;;;;;;23.50;99.90;;;;;;5033779;28;20012;-66
2023/01/21 03:22:30;;;;;;;;;;;23.50;99.90;;;;;;5033519;28;19917;-70
2023/01/21 03:24:58;;;;;;;;;;;23.70;99.90;;;;;;5033132;28;20014;-71
2023/01/21 03:27:26;;;;;;;;;;;23.70;99.90;;;;;;5033123;28;19909;-66
2023/01/21 03:29:55;;;;;;;;;;;23.70;99.90;;;;;;5033368;28;19920;-66
2023/01/21 03:32:23;;;;;;;;;;;23.80;99.90;;;;;;5033244;28;20389;-77
2023/01/21 03:34:52;;;;;;;;;;;24.10;99.90;;;;;;5032956;28;19909;-67
2023/01/21 03:37:23;;;;;;;;;;;24.00;99.90;;;;;;5032950;28;19979;-70
2023/01/21 03:39:52;;;;;;;;;;;23.90;99.90;;;;;;5033551;28;19909;-74
2023/01/21 03:42:19;;;;;;;;;;;23.70;99.90;;;;;;5033285;28;20202;-65
2023/01/21 03:44:46;;;;;;;;;;;23.60;99.90;;;;;;5032937;28;19971;-65
2023/01/21 03:47:20;;;;;;;;;;;23.70;99.90;;;;;;5032979;28;19909;-65
2023/01/21 03:49:53;;;;;;;;;;;23.90;99.90;;;;;;5033214;28;19910;-66
2023/01/21 03:52:21;;;;;;;;;;;24.00;99.90;;;;;;5033093;28;19909;-69
2023/01/21 03:54:48;;;;;;;;;;;24.20;99.90;;;;;;5032663;28;19913;-66
2023/01/21 03:57:14;;;;;;;;;;;24.30;99.90;;;;;;5033112;28;19932;-68
2023/01/21 03:59:41;;;;;;;;;;;24.10;99.90;;;;;;5032605;28;19970;-66
2023/01/21 04:02:08;;;;;;;;;;;24.00;99.90;;;;;;5033049;28;19913;-65
2023/01/21 04:04:35;;;;;;;;;;;24.00;99.90;;;;;;5032635;28;19917;-65
2023/01/21 04:07:02;;;;;;;;;;;23.90;99.90;;;;;;5032908;28;19956;-66
2023/01/21 04:09:28;;;;;;;;;;;23.90;99.90;;;;;;5032622;28;19917;-73
2023/01/21 04:11:55;;;;;;;;;;;23.70;99.90;;;;;;5032877;28;19916;-69
2023/01/21 04:14:21;;;;;;;;;;;23.40;99.90;;;;;;5032313;28;19909;-73
2023/01/21 04:16:48;;;;;;;;;;;23.40;99.90;;;;;;5032799;28;19913;-72
2023/01/21 04:19:15;;;;;;;;;;;23.50;99.90;;;;;;5032481;28;20280;-74
2023/01/21 04:21:41;;;;;;;;;;;23.60;99.90;;;;;;5032823;28;19917;-70
2023/01/21 04:24:08;;;;;;;;;;;23.70;99.90;;;;;;5032363;28;19921;-74
2023/01/21 04:26:34;;;;;;;;;;;23.50;99.90;;;;;;5033078;28;20352;-76
2023/01/21 04:29:01;;;;;;;;;;;23.60;99.90;;;;;;5036720;28;19913;-70
2023/01/21 04:31:28;;;;;;;;;;;23.60;99.90;;;;;;5036502;28;19913;-72
2023/01/21 04:33:55;;;;;;;;;;;23.50;99.90;;;;;;5036189;28;19913;-66
2023/01/21 04:36:21;;;;;;;;;;;23.40;99.90;;;;;;5036608;28;19913;-69
2023/01/21 04:38:48;;;;;;;;;;;23.30;99.90;;;;;;5036687;28;19992;-67
2023/01/21 04:41:14;;;;;;;;;;;23.10;99.90;;;;;;5036474;28;20351;-72
2023/01/21 04:43:41;;;;;;;;;;;23.20;99.90;;;;;;5036335;28;19916;-68
2023/01/21 04:46:08;;;;;;;;;;;23.30;99.90;;;;;;5036281;28;19944;-68
2023/01/21 04:48:34;;;;;;;;;;;23.10;99.90;;;;;;5036494;28;20269;-66
2023/01/21 04:51:01;;;;;;;;;;;23.10;99.90;;;;;;5036290;28;19909;-70
2023/01/21 04:53:28;;;;;;;;;;;23.00;99.90;;;;;;5035677;28;20332;-69
2023/01/21 04:55:54;;;;;;;;;;;23.00;99.90;;;;;;5036391;28;19910;-73
2023/01/21 04:58:21;;;;;;;;;;;22.90;99.90;;;;;;5036008;28;19916;-72
2023/01/21 05:00:48;;;;;;;;;;;22.90;99.90;;;;;;5035998;28;19917;-72
2023/01/21 05:03:15;;;;;;;;;;;22.90;99.90;;;;;;5035954;28;20358;-70
2023/01/21 05:05:41;;;;;;;;;;;22.90;99.90;;;;;;5035682;28;20450;-75
2023/01/21 05:08:08;;;;;;;;;;;22.80;99.90;;;;;;5036373;28;19921;-77
2023/01/21 05:10:34;;;;;;;;;;;22.70;99.90;;;;;;5036427;28;19909;-77
2023/01/21 05:13:01;;;;;;;;;;;22.70;99.90;;;;;;5036334;28;19916;-75
2023/01/21 05:15:28;;;;;;;;;;;22.70;99.90;;;;;;5035773;28;19913;-75
2023/01/21 05:17:55;;;;;;;;;;;22.60;99.90;;;;;;5018253;28;19909;-65
2023/01/21 05:20:22;;;;;;;;;;;22.50;99.90;;;;;;5035741;28;20374;-66
2023/01/21 05:22:48;;;;;;;;;;;22.60;99.90;;;;;;5035869;28;19939;-66
2023/01/21 05:25:15;;;;;;;;;;;22.50;99.90;;;;;;5034958;28;20294;-69
2023/01/21 05:27:42;;;;;;;;;;;22.50;99.90;;;;;;5035884;28;19917;-66
2023/01/21 05:30:09;;;;;;;;;;;22.50;99.90;;;;;;5035663;28;19909;-66
2023/01/21 05:32:36;;;;;;;;;;;22.40;99.90;;;;;;5035808;28;19915;-66
2023/01/21 05:35:03;;;;;;;;;;;22.40;99.90;;;;;;5035803;28;19913;-66
2023/01/21 05:37:30;;;;;;;;;;;22.40;99.90;;;;;;5035407;28;19915;-66
2023/01/21 05:39:57;;;;;;;;;;;22.30;99.90;;;;;;5034706;28;19916;-66
2023/01/21 05:42:24;;;;;;;;;;;22.30;99.90;;;;;;5035666;28;19963;-66
2023/01/21 05:44:50;;;;;;;;;;;22.40;99.90;;;;;;5034950;28;19917;-73
2023/01/21 05:47:17;;;;;;;;;;;22.40;99.90;;;;;;5035107;28;19952;-66
2023/01/21 05:49:44;;;;;;;;;;;22.50;99.90;;;;;;5035459;28;19909;-72
2023/01/21 05:52:10;;;;;;;;;;;22.60;99.90;;;;;;5035454;28;19909;-66
2023/01/21 05:54:37;;;;;;;;;;;22.70;99.90;;;;;;5035008;28;20011;-66
2023/01/21 05:57:03;;;;;;;;;;;22.70;99.90;;;;;;5035130;28;20379;-67
2023/01/21 05:59:30;;;;;;;;;;;22.60;99.90;;;;;;5034717;28;19964;-66
2023/01/21 06:01:57;;;;;;;;;;;22.60;99.90;;;;;;5034182;28;19920;-66
2023/01/21 06:04:29;;;;;;;;;;;22.40;99.90;;;;;;5025742;28;19968;-67
2023/01/21 06:06:56;;;;;;;;;;;22.40;99.90;;;;;;5026637;28;19913;-67
2023/01/21 06:09:24;;;;;;;;;;;22.30;99.90;;;;;;5026079;28;20383;-66
2023/01/21 06:11:50;;;;;;;;;;;22.30;99.90;;;;;;5026284;28;19914;-69
2023/01/21 06:14:17;;;;;;;;;;;22.20;99.90;;;;;;5025918;28;19920;-70
2023/01/21 06:16:44;;;;;;;;;;;22.20;99.90;;;;;;5025853;28;19913;-65
2023/01/21 06:19:10;;;;;;;;;;;22.10;99.90;;;;;;5026365;28;20543;-70
2023/01/21 06:21:37;;;;;;;;;;;22.00;99.90;;;;;;5026187;28;19920;-69
2023/01/21 06:24:04;;;;;;;;;;;22.00;99.90;;;;;;5025701;28;19921;-66
2023/01/21 06:26:30;;;;;;;;;;;22.00;99.90;;;;;;5025898;28;19917;-66
2023/01/21 06:28:57;;;;;;;;;;;22.10;99.90;;;;;;5025513;28;19920;-74
2023/01/21 06:31:24;;;;;;;;;;;22.10;99.90;;;;;;5025873;28;19913;-69
2023/01/21 06:33:50;;;;;;;;;;;22.00;99.90;;;;;;5025927;28;20023;-66
2023/01/21 06:36:17;;;;;;;;;;;22.00;99.90;;;;;;5026212;28;20300;-70
2023/01/21 06:38:44;;;;;;;;;;;22.00;99.90;;;;;;5025938;28;19995;-74
2023/01/21 06:41:10;;;;;;;;;;;21.90;99.90;;;;;;5025791;28;19913;-72
2023/01/21 06:43:37;;;;;;;;;;;21.80;99.90;;;;;;5025053;28;19917;-66
2023/01/21 06:46:04;;;;;;;;;;;21.80;99.90;;;;;;5007731;28;20401;-72
2023/01/21 06:48:30;;;;;;;;;;;21.80;99.90;;;;;;5007993;28;19944;-66
2023/01/21 06:50:59;;;;;;;;;;;21.70;99.90;;;;;;5024769;28;20387;-72
2023/01/21 06:53:26;;;;;;;;;;;21.70;99.90;;;;;;5025047;28;20401;-66
2023/01/21 06:55:53;;;;;;;;;;;21.70;99.90;;;;;;5031689;28;19917;-67
2023/01/21 06:58:19;;;;;;;;;;;21.70;99.90;;;;;;5032107;28;20390;-67
2023/01/21 07:00:46;;;;;;;;;;;21.80;99.90;;;;;;5031989;28;19921;-67
2023/01/21 07:03:13;;;;;;;;;;;21.80;99.90;;;;;;5031602;28;19919;-66
2023/01/21 07:05:39;;;;;;;;;;;21.90;99.90;;;;;;5031970;28;19921;-66
2023/01/21 07:08:06;;;;;;;;;;;21.90;99.90;;;;;;5031464;28;19909;-67
2023/01/21 07:10:33;;;;;;;;;;;21.90;99.90;;;;;;5031978;28;19913;-72
2023/01/21 07:12:59;;;;;;;;;;;21.90;99.90;;;;;;5031880;28;19913;-69
2023/01/21 07:15:29;;;;;;;;;;;21.80;99.90;;;;;;5031041;28;20467;-67
2023/01/21 07:17:56;;;;;;;;;;;21.80;99.90;;;;;;5031823;28;19909;-66
2023/01/21 07:20:23;;;;;;;;;;;21.80;99.90;;;;;;5031468;28;19951;-68
2023/01/21 07:22:49;;;;;;;;;;;21.70;99.90;;;;;;5031380;28;19921;-66
2023/01/21 07:25:16;;;;;;;;;;;21.70;99.90;;;;;;5031006;28;19987;-66
2023/01/21 07:27:43;;;;;;;;;;;21.70;99.90;;;;;;5031483;28;19959;-66
2023/01/21 07:30:15;;;;;;;;;;;21.60;99.90;;;;;;5031417;28;19910;-66
2023/01/21 07:32:41;;;;;;;;;;;21.60;99.90;;;;;;5031595;28;19909;-65
2023/01/21 07:35:08;;;;;;;;;;;21.60;99.90;;;;;;5030848;28;19924;-66
2023/01/21 07:37:35;;;;;;;;;;;21.60;99.90;;;;;;5031215;28;20011;-67
2023/01/21 07:40:01;;;;;;;;;;;21.50;99.90;;;;;;5031423;28;19913;-66
2023/01/21 07:42:28;;;;;;;;;;;21.50;99.90;;;;;;5031355;28;20011;-72
2023/01/21 07:44:56;;;;;;;;;;;21.40;99.90;;;;;;5030631;28;19963;-66
2023/01/21 07:47:22;;;;;;;;;;;21.40;99.90;;;;;;5030902;28;19916;-65
2023/01/21 07:49:49;;;;;;;;;;;21.40;99.90;;;;;;5031312;28;19909;-66
2023/01/21 07:52:15;;;;;;;;;;;21.40;99.90;;;;;;5031038;28;20320;-65
2023/01/21 07:54:42;;;;;;;;;;;21.40;99.90;;;;;;5030744;28;19952;-65
2023/01/21 07:57:09;;;;;;;;;;;21.40;99.90;;;;;;5030959;28;19960;-71
2023/01/21 07:59:35;;;;;;;;;;;21.40;99.90;;;;;;5030491;28;19925;-78
2023/01/21 08:02:02;;;;;;;;;;;21.40;99.90;;;;;;5030520;28;20004;-67
2023/01/21 08:04:29;;;;;;;;;;;21.40;99.90;;;;;;5031290;28;19954;-66
2023/01/21 08:06:55;;;;;;;;;;;21.40;99.90;;;;;;5033209;28;19909;-66
2023/01/21 08:09:25;;;;;;;;;;;21.40;99.90;;;;;;5033209;28;19916;-66
2023/01/21 08:11:52;;;;;;;;;;;21.40;99.90;;;;;;5033144;28;19979;-67
2023/01/21 08:14:18;;;;;;;;;;;21.40;99.90;;;;;;5032300;28;20350;-75
2023/01/21 08:16:45;;;;;;;;;;;21.40;99.90;;;;;;5023277;28;19920;-65
2023/01/21 08:19:11;;;;;;;;;;;21.30;99.90;;;;;;5024544;28;19913;-69
2023/01/21 08:21:38;;;;;;;;;;;21.30;99.90;;;;;;5024583;28;19917;-70
2023/01/21 08:24:05;;;;;;;;;;;21.30;99.90;;;;;;5024059;28;19944;-66
2023/01/21 08:26:32;;;;;;;;;;;21.30;99.90;;;;;;5024639;28;19921;-70
2023/01/21 08:28:59;;;;;;;;;;;21.30;99.90;;;;;;5023703;28;19948;-69
2023/01/21 08:31:25;;;;;;;;;;;21.30;99.90;;;;;;5024207;28;19913;-66
2023/01/21 08:33:52;;;;;;;;;;;21.30;99.90;;;;;;5023883;28;20047;-68
2023/01/21 08:36:18;;;;;;;;;;;21.30;99.90;;;;;;5024346;28;19966;-67
2023/01/21 08:38:45;;;;;;;;;;;21.20;99.90;;;;;;5024244;28;19925;-71
2023/01/21 08:41:12;;;;;;;;;;;21.20;99.90;;;;;;5024072;28;19913;-67
2023/01/21 08:43:39;;;;;;;;;;;21.20;99.90;;;;;;5024181;28;20011;-66
2023/01/21 08:46:06;;;;;;;;;;;21.20;99.90;;;;;;5024608;28;19940;-67
2023/01/21 08:48:32;;;;;;;;;;;21.20;99.90;;;;;;5024315;28;19913;-65
2023/01/21 08:50:59;;;;;;;;;;;21.20;99.90;;;;;;5024379;28;20021;-66
2023/01/21 08:53:26;;;;;;;;;;;21.20;99.90;;;;;;5023803;28;19913;-65
2023/01/21 08:55:53;;;;;;;;;;;21.20;99.90;;;;;;5023732;28;20496;-67
2023/01/21 08:58:19;;;;;;;;;;;21.20;99.90;;;;;;5024072;28;20371;-67
2023/01/21 09:00:46;;;;;;;;;;;21.10;99.90;;;;;;5024502;28;20644;-69
2023/01/21 09:03:16;;;;;;;;;;;21.10;99.90;;;;;;5023636;28;19956;-65
2023/01/21 09:05:43;;;;;;;;;;;21.10;99.90;;;;;;5023762;28;19921;-67
2023/01/21 09:08:09;;;;;;;;;;;21.10;99.90;;;;;;5023715;28;20363;-69
2023/01/21 09:13:22;;;;;;;;;;;21.00;99.90;;;;;;5023897;28;19919;-71
2023/01/21 09:15:49;;;;;;;;;;;21.00;99.90;;;;;;5027880;28;19913;-70
2023/01/21 09:18:15;;;;;;;;;;;20.90;99.90;;;;;;5027951;28;20022;-67
2023/01/21 09:20:42;;;;;;;;;;;20.80;99.90;;;;;;5027717;28;20362;-67
2023/01/21 09:23:24;;;;;;;;;;;20.60;99.90;;;;;;5027008;28;19913;-69
2023/01/21 09:26:04;;;;;;;;;;;20.60;99.90;;;;;;5027369;28;19929;-66
2023/01/21 09:28:33;;;;;;;;;;;20.50;99.90;;;;;;5026985;28;19920;-72
2023/01/21 09:31:01;;;;;;;;;;;20.50;99.90;;;;;;5027671;28;20608;-69
2023/01/21 09:33:28;;;;;;;;;;;20.40;99.90;;;;;;5026461;28;19913;-70
2023/01/21 09:35:56;;;;;;;;;;;20.40;99.90;;;;;;5027240;28;19913;-67
2023/01/21 09:38:23;;;;;;;;;;;20.40;99.90;;;;;;5027356;28;19920;-67
2023/01/21 09:40:50;;;;;;;;;;;20.40;99.90;;;;;;5026993;28;20372;-66
2023/01/21 09:43:23;;;;;;;;;;;20.30;99.90;;;;;;5026552;28;20357;-66
2023/01/21 09:45:52;;;;;;;;;;;20.20;99.90;;;;;;5027120;28;19921;-69
2023/01/21 09:48:30;;;;;;;;;;;20.20;99.90;;;;;;5026717;28;19917;-66
2023/01/21 09:51:00;;;;;;;;;;;20.30;99.90;;;;;;5026831;28;19959;-67
2023/01/21 09:53:37;;;;;;;;;;;20.30;99.90;;;;;;5026602;28;19953;-69
2023/01/21 09:56:05;;;;;;;;;;;20.30;99.90;;;;;;5027098;28;19987;-73
2023/01/21 09:58:47;;;;;;;;;;;20.40;99.90;;;;;;5026709;28;19913;-68
2023/01/21 10:01:16;;;;;;;;;;;20.30;99.90;;;;;;5026479;28;19917;-67
2023/01/21 10:03:43;;;;;;;;;;;20.30;99.90;;;;;;5026454;28;19913;-67
2023/01/21 10:06:11;;;;;;;;;;;20.30;99.90;;;;;;5026684;28;19956;-71
2023/01/21 10:08:50;;;;;;;;;;;20.30;99.90;;;;;;5026890;28;19913;-71
2023/01/21 10:11:48;;;;;;;;;;;20.20;99.90;;;;;;5026697;28;19913;-68
2023/01/21 10:14:33;;;;;;;;;;;20.20;99.90;;;;;;5002929;28;19917;-76
2023/01/21 10:17:00;;;;;;;;;;;20.20;99.90;;;;;;5026531;28;19913;-74
2023/01/21 10:19:32;;;;;;;;;;;20.20;99.90;;;;;;5026574;28;19913;-66
2023/01/21 10:22:01;;;;;;;;;;;20.20;99.90;;;;;;5026923;28;19913;-67
2023/01/21 10:24:51;;;;;;;;;;;20.10;99.90;;;;;;5025653;28;19925;-68
2023/01/21 10:27:19;;;;;;;;;;;20.10;99.90;;;;;;5020158;28;20372;-65
2023/01/21 10:29:47;;;;;;;;;;;20.10;99.90;;;;;;5026261;28;20050;-67
2023/01/21 10:32:21;;;;;;;;;;;20.10;99.90;;;;;;5026290;28;20028;-70
2023/01/21 10:34:50;;;;;;;;;;;20.10;99.90;;;;;;5026228;28;19917;-68
2023/01/21 10:37:16;;;;;;;;;;;20.10;99.90;;;;;;5008262;28;20351;-74
2023/01/21 10:40:03;;;;;;;;;;;20.10;99.90;;;;;;5025845;28;19913;-69
2023/01/21 10:42:37;;;;;;;;;;;20.10;99.90;;;;;;5025509;28;20003;-69
2023/01/21 10:45:23;;;;;;;;;;;20.10;99.90;;;;;;5026063;28;19925;-65
2023/01/21 10:47:49;;;;;;;;;;;20.10;99.90;;;;;;5026039;28;19913;-66
2023/01/21 10:50:34;;;;;;;;;;;20.10;99.90;;;;;;5025991;28;19956;-73
2023/01/21 10:53:09;;;;;;;;;;;20.20;99.90;;;;;;5025067;28;20264;-70
2023/01/21 10:55:42;;;;;;;;;;;20.20;99.90;;;;;;5025581;28;19913;-72
2023/01/21 10:58:15;;;;;;;;;;;20.20;99.90;;;;;;5025785;28;19920;-66
2023/01/21 11:00:46;;;;;;;;;;;20.20;99.90;;;;;;5025991;28;20308;-64
2023/01/21 11:03:16;;;;;;;;;;;20.30;99.90;;;;;;5025251;28;20000;-71
2023/01/21 11:05:43;;;;;;;;;;;20.30;99.90;;;;;;5025059;28;19921;-72
2023/01/21 11:08:14;;;;;;;;;;;20.30;99.90;;;;;;5025713;28;20007;-69
2023/01/21 11:10:41;;;;;;;;;;;20.40;99.90;;;;;;5025686;28;19913;-67
2023/01/21 11:13:11;;;;;;;;;;;20.40;99.90;;;;;;5024985;28;19917;-66
2023/01/21 11:15:39;;;;;;;;;;;20.40;99.90;;;;;;5025169;28;19988;-65
2023/01/21 11:18:24;;;;;;;;;;;20.40;99.90;;;;;;5025008;28;20650;-71
2023/01/21 11:20:51;;;;;;;;;;;20.40;99.90;;;;;;5025972;28;20345;-71
2023/01/21 11:23:30;;;;;;;;;;;20.40;99.90;;;;;;5024995;28;20299;-68
2023/01/21 11:26:01;;;;;;;;;;;20.40;99.90;;;;;;5025144;28;19928;-68
2023/01/21 11:28:29;;;;;;;;;;;20.40;99.90;;;;;;5025160;28;19917;-65
2023/01/21 11:31:07;;;;;;;;;;;20.30;99.90;;;;;;5024963;28;19938;-68
2023/01/21 11:33:34;;;;;;;;;;;20.20;99.90;;;;;;5024596;28;19952;-65
2023/01/21 11:36:17;;;;;;;;;;;20.10;99.90;;;;;;5025077;28;20004;-68
2023/01/21 11:38:46;;;;;;;;;;;19.80;99.90;;;;;;5024940;28;19914;-74
2023/01/21 11:41:12;;;;;;;;;;;19.60;99.90;;;;;;5024969;28;19972;-71
2023/01/21 11:43:46;;;;;;;;;;;19.60;99.90;;;;;;5024717;28;19920;-69
2023/01/21 11:46:31;;;;;;;;;;;19.60;99.90;;;;;;5024643;28;19927;-65
2023/01/21 11:49:17;;;;;;;;;;;19.60;99.90;;;;;;5024955;28;19913;-65
2023/01/21 11:51:44;;;;;;;;;;;19.70;99.90;;;;;;5024581;28;19913;-65
2023/01/21 11:54:20;;;;;;;;;;;19.60;99.90;;;;;;5024765;28;19913;-73
2023/01/21 11:57:00;;;;;;;;;;;19.70;99.90;;;;;;5024914;28;19944;-68
2023/01/21 11:59:26;;;;;;;;;;;19.80;99.90;;;;;;5024494;28;19925;-68
2023/01/21 12:02:25;;;;;;;;;;;19.80;99.90;;;;;;5024980;28;20470;-65
2023/01/21 12:04:54;;;;;;;;;;;19.90;99.90;;;;;;5001076;28;19960;-67
2023/01/21 12:07:23;;;;;;;;;;;19.90;99.90;;;;;;5024547;28;20372;-67
2023/01/21 12:09:54;;;;;;;;;;;20.00;99.90;;;;;;5024934;28;19987;-66
2023/01/21 12:12:20;;;;;;;;;;;20.10;99.90;;;;;;5024387;28;19913;-70
2023/01/21 12:14:58;;;;;;;;;;;20.10;99.90;;;;;;5024217;28;19913;-69
2023/01/21 12:17:30;;;;;;;;;;;20.00;99.90;;;;;;5024239;28;19913;-67
2023/01/21 12:20:23;;;;;;;;;;;20.10;99.90;;;;;;5024861;28;19913;-66
2023/01/21 12:22:55;;;;;;;;;;;20.10;99.90;;;;;;5022013;28;19913;-70
2023/01/21 12:25:22;;;;;;;;;;;20.20;99.90;;;;;;5024072;28;19975;-66
2023/01/21 12:27:58;;;;;;;;;;;20.20;99.90;;;;;;5024322;28;19932;-67
2023/01/21 12:30:42;;;;;;;;;;;20.30;99.90;;;;;;5024760;28;19913;-69
2023/01/21 12:33:09;;;;;;;;;;;20.30;99.90;;;;;;5024202;28;19913;-65
2023/01/21 12:35:38;;;;;;;;;;;20.30;99.90;;;;;;5024255;28;19913;-69
2023/01/21 12:38:19;;;;;;;;;;;20.30;99.90;;;;;;5024110;28;19971;-66
2023/01/21 12:40:51;;;;;;;;;;;20.30;99.90;;;;;;5024534;28;19920;-64
2023/01/21 12:43:20;;;;;;;;;;;20.30;99.90;;;;;;5023683;28;19995;-65
2023/01/21 12:45:57;;;;;;;;;;;20.30;99.90;;;;;;5024655;28;19975;-74
2023/01/21 12:48:29;;;;;;;;;;;20.30;99.90;;;;;;5024228;28;19917;-65
2023/01/21 12:51:03;;;;;;;;;;;20.30;99.90;;;;;;5028032;28;19913;-68
2023/01/21 12:53:39;;;;;;;;;;;20.30;99.90;;;;;;5027641;28;19913;-67
2023/01/21 12:56:09;;;;;;;;;;;20.30;99.90;;;;;;5028291;28;20613;-66
2023/01/21 12:58:38;;;;;;;;;;;20.20;99.90;;;;;;5027875;28;20643;-65
2023/01/21 13:01:08;;;;;;;;;;;20.10;99.90;;;;;;5028081;28;19921;-67
2023/01/21 13:03:48;;;;;;;;;;;20.20;99.90;;;;;;5027306;28;19953;-70
2023/01/21 13:06:15;;;;;;;;;;;20.10;99.90;;;;;;5028050;28;19921;-66
2023/01/21 13:08:41;;;;;;;;;;;20.10;99.90;;;;;;5028065;28;19924;-65
2023/01/21 13:11:11;;;;;;;;;;;20.10;99.90;;;;;;5027978;28;19917;-72
2023/01/21 13:13:41;;;;;;;;;;;20.10;99.90;;;;;;5027574;28;19921;-71
2023/01/21 13:16:09;;;;;;;;;;;20.10;99.90;;;;;;5027198;28;20484;-74
2023/01/21 13:18:37;;;;;;;;;;;20.10;99.90;;;;;;5035409;28;20038;-74
2023/01/21 13:21:07;;;;;;;;;;;20.10;99.90;;;;;;5036300;28;20405;-75
2023/01/21 13:23:40;;;;;;;;;;;20.10;99.90;;;;;;5035674;28;19921;-74
2023/01/21 13:26:13;;;;;;;;;;;20.10;99.90;;;;;;5036222;28;20008;-75
2023/01/21 13:28:58;;;;;;;;;;;20.10;99.90;;;;;;5035942;28;19916;-75
2023/01/21 13:31:39;;;;;;;;;;;20.10;99.90;;;;;;5036021;28;19909;-75
2023/01/21 13:34:08;;;;;;;;;;;20.00;99.90;;;;;;5035760;28;19913;-75
2023/01/21 13:36:55;;;;;;;;;;;20.00;99.90;;;;;;5036031;28;20047;-71
2023/01/21 13:39:31;;;;;;;;;;;20.00;99.90;;;;;;5035618;28;19916;-75
2023/01/21 13:42:12;;;;;;;;;;;20.00;99.90;;;;;;5035671;28;19920;-64
2023/01/21 13:44:43;;;;;;;;;;;20.00;99.90;;;;;;5035398;28;19970;-76
2023/01/21 13:47:16;;;;;;;;;;;20.00;99.90;;;;;;5035728;28;19909;-76
2023/01/21 13:49:43;;;;;;;;;;;19.90;99.90;;;;;;5035771;28;20390;-76
2023/01/21 13:52:32;;;;;;;;;;;19.90;99.90;;;;;;5035776;28;19964;-75
2023/01/21 13:55:05;;;;;;;;;;;20.00;99.90;;;;;;5030131;28;20378;-76
2023/01/21 13:57:44;;;;;;;;;;;20.00;99.90;;;;;;5035351;28;19910;-76
2023/01/21 14:00:16;;;;;;;;;;;20.00;99.90;;;;;;5034800;28;20022;-76
2023/01/21 14:02:53;;;;;;;;;;;20.00;99.90;;;;;;5035275;28;19916;-76
2023/01/21 14:05:25;;;;;;;;;;;20.00;99.90;;;;;;5035279;28;20031;-76
2023/01/21 14:07:58;;;;;;;;;;;20.00;99.90;;;;;;5035309;28;19909;-76
2023/01/21 14:10:33;;;;;;;;;;;20.10;99.90;;;;;;5035523;28;19916;-76
2023/01/21 14:13:18;;;;;;;;;;;20.10;99.90;;;;;;5034745;28;20372;-75
2023/01/21 14:15:51;;;;;;;;;;;20.10;99.90;;;;;;5035281;28;19909;-76
2023/01/21 14:18:24;;;;;;;;;;;20.10;99.90;;;;;;5035255;28;19963;-75
2023/01/21 14:21:08;;;;;;;;;;;20.10;99.90;;;;;;5035279;28;19910;-75
2023/01/21 14:23:44;;;;;;;;;;;20.10;99.90;;;;;;5034605;28;20249;-76
2023/01/21 14:26:27;;;;;;;;;;;20.10;99.90;;;;;;5034839;28;19917;-76
2023/01/21 14:29:12;;;;;;;;;;;20.10;99.90;;;;;;5035120;28;19916;-76
2023/01/21 14:31:43;;;;;;;;;;;20.20;99.90;;;;;;5035076;28;19913;-75
2023/01/21 14:34:18;;;;;;;;;;;20.10;99.90;;;;;;5034734;28;19959;-76
2023/01/21 14:36:52;;;;;;;;;;;20.20;99.90;;;;;;5034913;28;20007;-75
2023/01/21 14:39:19;;;;;;;;;;;20.10;99.90;;;;;;5034687;28;19909;-75